Time;durP1;ratioP1;P1;durP2;ratioP2;P2;SDS_P1;SDS_P2;PMS_P1;PMS_P2;Temp;Humidity;BMP_temperature;BMP_pressure;BME280_temperature;BME280_humidity;BME280_pressure;Samples;Min_cycle;Max_cycle;Signal;HPM_P1;HPM_P2
2023/08/23 00:01:50;;;;;;;5.15;4.75;;;;;;;23.17;100.00;97835.47;1223852;83;2924788;-68
2023/08/23 00:04:22;;;;;;;5.10;4.60;;;;;;;23.16;100.00;97836.75;1223216;75;2929627;-67
2023/08/23 00:06:55;;;;;;;4.85;4.45;;;;;;;23.14;100.00;97837.34;1221690;75;2944121;-66
2023/08/23 00:09:28;;;;;;;4.25;3.85;;;;;;;23.10;100.00;97836.22;1224027;75;2924103;-64
2023/08/23 00:12:00;;;;;;;4.05;3.65;;;;;;;23.15;100.00;97835.28;1222937;75;2944561;-67
2023/08/23 00:14:33;;;;;;;4.15;3.55;;;;;;;23.25;100.00;97835.47;1223197;75;2925101;-67
2023/08/23 00:17:08;;;;;;;5.05;3.50;;;;;;;22.94;100.00;97841.00;1222098;75;2928493;-67
2023/08/23 00:19:41;;;;;;;3.60;3.30;;;;;;;23.10;100.00;97836.97;1222254;75;2919850;-67
2023/08/23 00:22:13;;;;;;;3.55;3.25;;;;;;;22.95;100.00;97836.94;1222189;75;2926645;-67
2023/08/23 00:24:46;;;;;;;5.70;5.20;;;;;;;22.85;100.00;97835.97;1221381;75;2922854;-69
2023/08/23 00:27:19;;;;;;;5.50;4.85;;;;;;;22.86;100.00;97829.84;1222367;75;2922527;-67
2023/08/23 00:29:51;;;;;;;5.75;5.20;;;;;;;22.91;100.00;97830.97;1223104;75;2930406;-67
2023/08/23 00:32:27;;;;;;;5.70;5.20;;;;;;;22.62;100.00;97830.34;1223429;75;2927632;-65
2023/08/23 00:34:59;;;;;;;6.00;5.50;;;;;;;22.70;100.00;97823.47;1222253;75;2923760;-70
2023/08/23 00:37:32;;;;;;;5.40;4.90;;;;;;;22.59;100.00;97817.53;1222918;75;2936836;-69
2023/08/23 00:40:05;;;;;;;5.40;4.90;;;;;;;22.65;100.00;97816.03;1223012;75;2926400;-69
2023/08/23 00:42:38;;;;;;;5.55;5.05;;;;;;;22.58;100.00;97821.59;1224032;75;2925886;-67
2023/08/23 00:45:12;;;;;;;5.60;5.10;;;;;;;22.51;100.00;97826.63;1222960;75;2927324;-67
2023/08/23 00:47:50;;;;;;;6.20;5.60;;;;;;;22.50;100.00;97827.91;1222110;75;2929880;-68
2023/08/23 00:50:23;;;;;;;;;;;;;;;22.28;100.00;97828.56;1221118;75;2973029;-67
2023/08/23 00:52:56;;;;;;;6.00;5.50;;;;;;;22.53;100.00;97821.19;1223265;75;2928887;-64
2023/08/23 00:55:28;;;;;;;5.55;5.05;;;;;;;22.45;100.00;97816.91;1223473;75;2923925;-67
2023/08/23 00:58:02;;;;;;;5.80;5.30;;;;;;;22.41;100.00;97816.53;1222927;75;2930986;-67
2023/08/23 01:00:35;;;;;;;5.35;4.85;;;;;;;22.53;100.00;97810.03;1222310;75;2926469;-66
2023/08/23 01:03:10;;;;;;;6.35;5.75;;;;;;;22.41;100.00;97820.06;1223839;75;2925356;-66
2023/08/23 01:05:58;;;;;;;5.30;4.80;;;;;;;22.58;100.00;97819.53;1222702;75;2929862;-68
2023/08/23 01:08:41;;;;;;;5.10;4.70;;;;;;;22.57;100.00;97815.28;1222992;75;2929634;-65
2023/08/23 01:11:26;;;;;;;4.25;3.85;;;;;;;22.48;100.00;97813.75;1222705;75;2924734;-67
2023/08/23 01:14:07;;;;;;;4.80;4.20;;;;;;;22.43;100.00;97823.03;1223305;75;2935788;-67
2023/08/23 01:16:42;;;;;;;4.10;3.75;;;;;;;22.44;100.00;97815.41;1222305;75;2924448;-67
2023/08/23 01:19:42;;;;;;;3.65;3.35;;;;;;;22.50;100.00;97819.53;1223421;75;2925474;-68
2023/08/23 01:22:20;;;;;;;3.45;3.15;;;;;;;22.46;100.00;97813.56;1222912;75;2929866;-69
2023/08/23 01:24:56;;;;;;;3.70;3.40;;;;;;;22.43;100.00;97813.94;1223081;75;2923228;-67
2023/08/23 01:27:29;;;;;;;4.55;3.50;;;;;;;22.41;100.00;97811.69;1224839;75;2906951;-68
2023/08/23 01:30:02;;;;;;;3.50;3.20;;;;;;;22.35;100.00;97813.91;1222705;75;2925970;-67
2023/08/23 01:32:43;;;;;;;3.90;3.30;;;;;;;22.36;100.00;97812.59;1222474;75;2933109;-65
2023/08/23 01:35:21;;;;;;;3.50;3.20;;;;;;;22.40;100.00;97806.69;1222690;75;2923454;-68
2023/08/23 01:37:55;;;;;;;3.00;2.80;;;;;;;22.43;100.00;97809.09;1224348;75;2927064;-68
2023/08/23 01:40:31;;;;;;;3.50;2.90;;;;;;;22.35;100.00;97816.72;1223694;75;2923780;-66
2023/08/23 01:43:04;;;;;;;3.95;3.35;;;;;;;22.30;100.00;97815.56;1223445;75;2923712;-67
2023/08/23 01:45:37;;;;;;;3.05;2.75;;;;;;;22.31;100.00;97816.31;1222804;75;2928474;-69
2023/08/23 01:48:10;;;;;;;4.35;3.95;;;;;;;22.22;100.00;97814.03;1222751;75;2927856;-68
2023/08/23 01:50:43;;;;;;;3.70;3.40;;;;;;;22.27;100.00;97818.69;1223306;75;2914948;-66
2023/08/23 01:53:16;;;;;;;4.45;4.05;;;;;;;22.09;100.00;97809.31;1223180;75;2929729;-66
2023/08/23 01:55:51;;;;;;;4.35;3.95;;;;;;;22.02;100.00;97812.81;1223531;75;2920949;-69
2023/08/23 01:58:24;;;;;;;6.15;5.55;;;;;;;21.80;100.00;97808.63;1223544;75;2925645;-67
2023/08/23 02:00:56;;;;;;;5.60;5.10;;;;;;;21.94;100.00;97804.44;1223984;67;2927690;-70
2023/08/23 02:03:29;;;;;;;4.95;4.50;;;;;;;21.98;100.00;97809.63;1223735;75;2924698;-66
2023/08/23 02:06:02;;;;;;;5.15;4.60;;;;;;;22.00;100.00;97807.78;1222180;75;2928687;-68
2023/08/23 02:08:34;;;;;;;4.00;3.60;;;;;;;22.07;100.00;97798.72;1222882;75;2924968;-70
2023/08/23 02:11:10;;;;;;;3.75;3.45;;;;;;;22.04;100.00;97799.09;1223370;75;2928322;-66
2023/08/23 02:13:42;;;;;;;3.25;2.95;;;;;;;22.04;100.00;97804.66;1223410;75;2933768;-65
2023/08/23 02:16:15;;;;;;;3.60;3.25;;;;;;;21.92;100.00;97802.19;1222697;75;2920935;-68
2023/08/23 02:18:47;;;;;;;3.95;3.55;;;;;;;21.76;100.00;97797.81;1223713;75;2926022;-67
2023/08/23 02:21:20;;;;;;;5.05;3.65;;;;;;;21.79;100.00;97799.53;1223453;75;2921660;-68
2023/08/23 02:23:53;;;;;;;4.45;3.45;;;;;;;21.82;100.00;97792.84;1222658;75;2921449;-67
2023/08/23 02:26:28;;;;;;;3.85;3.45;;;;;;;21.79;100.00;97790.41;1222371;75;2934597;-66
2023/08/23 02:29:01;;;;;;;4.20;3.80;;;;;;;21.73;100.00;97789.84;1221779;75;2951859;-65
2023/08/23 02:31:33;;;;;;;3.75;3.45;;;;;;;21.73;100.00;97789.84;1223120;75;2924747;-70
2023/08/23 02:34:06;;;;;;;3.55;3.25;;;;;;;21.83;100.00;97788.75;1223255;75;2923198;-67
2023/08/23 02:36:38;;;;;;;3.55;3.25;;;;;;;21.86;100.00;97789.69;1223582;75;2926315;-70
2023/08/23 02:39:12;;;;;;;3.90;3.50;;;;;;;21.70;100.00;97792.41;1223283;75;2922749;-69
2023/08/23 02:41:47;;;;;;;7.05;5.35;;;;;;;21.46;100.00;97787.25;1223221;75;2929766;-68
2023/08/23 02:44:19;;;;;;;4.40;4.00;;;;;;;21.63;100.00;97790.34;1223637;75;2926809;-69
2023/08/23 02:46:52;;;;;;;4.20;3.80;;;;;;;21.57;100.00;97789.72;1222800;75;2931974;-68
2023/08/23 02:49:25;;;;;;;5.00;3.55;;;;;;;21.63;100.00;97784.03;1222469;75;2926810;-67
2023/08/23 02:51:57;;;;;;;3.90;3.50;;;;;;;21.67;100.00;97789.97;1223716;75;2922741;-70
2023/08/23 02:54:30;;;;;;;4.05;3.70;;;;;;;21.66;100.00;97783.66;1221069;75;2986965;-68
2023/08/23 02:57:05;;;;;;;5.30;4.80;;;;;;;21.40;100.00;97784.63;1223009;75;2925378;-66
2023/08/23 02:59:38;;;;;;;6.60;6.00;;;;;;;21.30;100.00;97780.06;1223315;75;2924151;-68
2023/08/23 03:02:10;;;;;;;5.00;4.60;;;;;;;21.33;100.00;97774.13;1222554;75;2922499;-67
2023/08/23 03:04:43;;;;;;;5.20;3.75;;;;;;;21.24;100.00;97772.63;1223242;75;2926069;-65
2023/08/23 03:07:16;;;;;;;4.85;4.45;;;;;;;21.17;100.00;97767.00;1223499;75;2921056;-69
2023/08/23 03:09:49;;;;;;;5.90;4.90;;;;;;;21.33;100.00;97768.56;1223310;75;2953039;-66
2023/08/23 03:12:24;;;;;;;5.00;4.60;;;;;;;21.45;100.00;97766.25;1223104;75;2923995;-68
2023/08/23 03:14:57;;;;;;;4.15;3.75;;;;;;;21.47;100.00;97766.47;1222777;75;2924032;-69
2023/08/23 03:17:29;;;;;;;3.90;3.60;;;;;;;21.47;100.00;97772.03;1223747;75;2917702;-68
2023/08/23 03:20:02;;;;;;;3.95;3.65;;;;;;;21.47;100.00;97767.19;1223342;75;2925332;-66
2023/08/23 03:22:35;;;;;;;4.20;3.80;;;;;;;21.43;100.00;97771.63;1223337;75;2926791;-69
2023/08/23 03:25:08;;;;;;;3.50;3.20;;;;;;;21.43;100.00;97772.41;1221607;75;2924176;-69
2023/08/23 03:27:44;;;;;;;3.15;2.85;;;;;;;21.42;100.00;97779.25;1223187;75;2943090;-67
2023/08/23 03:30:17;;;;;;;3.45;3.15;;;;;;;21.34;100.00;97777.69;1223254;75;2927595;-67
2023/08/23 03:32:50;;;;;;;4.30;3.75;;;;;;;21.27;100.00;97774.28;1222924;75;2930615;-69
2023/08/23 03:35:22;;;;;;;3.70;3.30;;;;;;;21.33;100.00;97773.41;1220393;75;2930016;-67
2023/08/23 03:37:55;;;;;;;3.60;3.30;;;;;;;21.13;100.00;97772.91;1222101;75;2929708;-67
2023/08/23 03:40:27;;;;;;;4.20;3.80;;;;;;;21.16;100.00;97771.78;1222550;75;2921598;-66
2023/08/23 03:43:03;;;;;;;3.60;3.30;;;;;;;21.22;100.00;97777.22;1223252;75;2937003;-70
2023/08/23 03:45:36;;;;;;;3.50;3.20;;;;;;;21.12;100.00;97760.28;1220210;75;2929031;-68
2023/08/23 03:48:09;;;;;;;4.50;4.10;;;;;;;21.19;100.00;97775.53;1220535;75;2986196;-66
2023/08/23 03:50:42;;;;;;;3.90;3.50;;;;;;;21.21;100.00;97773.72;1221648;75;2951725;-69
2023/08/23 03:53:15;;;;;;;3.60;3.30;;;;;;;21.24;100.00;97769.81;1223482;75;2929119;-68
2023/08/23 03:55:54;;;;;;;3.50;3.20;;;;;;;21.25;100.00;97771.31;1219524;75;3088449;-67
2023/08/23 03:58:29;;;;;;;4.15;3.20;;;;;;;21.27;100.00;97759.63;1223117;75;2919783;-71
2023/08/23 04:01:01;;;;;;;3.25;2.95;;;;;;;21.23;100.00;97773.16;1222141;75;2969105;-68
2023/08/23 04:03:34;;;;;;;3.80;3.35;;;;;;;21.09;100.00;97769.69;1223177;75;2929619;-68
2023/08/23 04:06:07;;;;;;;4.20;3.55;;;;;;;20.94;100.00;97772.38;1222594;75;2926962;-69
2023/08/23 04:08:39;;;;;;;3.30;3.00;;;;;;;21.10;100.00;97765.63;1222456;75;2966672;-65
2023/08/23 04:11:13;;;;;;;3.40;3.10;;;;;;;21.12;100.00;97768.63;1223789;75;2922645;-67
2023/08/23 04:13:48;;;;;;;3.30;3.00;;;;;;;21.11;100.00;97777.53;1222991;75;2927805;-65
2023/08/23 04:16:21;;;;;;;3.20;2.90;;;;;;;21.12;100.00;97773.44;1222663;75;2921749;-68
2023/08/23 04:18:53;;;;;;;3.20;2.90;;;;;;;21.14;100.00;97770.84;1222788;75;2925051;-67
2023/08/23 04:21:27;;;;;;;3.40;3.10;;;;;;;21.21;100.00;97778.50;1223170;75;2920499;-66
2023/08/23 04:23:59;;;;;;;6.50;5.85;;;;;;;21.17;100.00;97769.78;1222377;75;2924934;-68
2023/08/23 04:26:32;;;;;;;6.35;5.75;;;;;;;21.22;100.00;97774.44;1221856;75;2919786;-68
2023/08/23 04:29:07;;;;;;;6.50;5.80;;;;;;;20.89;100.00;97773.25;1223386;75;2923822;-68
2023/08/23 04:31:40;;;;;;;7.00;6.30;;;;;;;20.91;100.00;97779.03;1222059;75;2923441;-67
2023/08/23 04:34:13;;;;;;;8.55;7.60;;;;;;;20.84;100.00;97777.69;1222909;75;2930221;-69
2023/08/23 04:36:45;;;;;;;6.90;6.30;;;;;;;21.06;100.00;97765.97;1221455;75;2930546;-68
2023/08/23 04:39:18;;;;;;;5.60;5.10;;;;;;;21.19;100.00;97770.72;1223555;75;2928657;-64
2023/08/23 04:41:50;;;;;;;5.35;4.85;;;;;;;21.25;100.00;97770.56;1222958;75;2921248;-68
2023/08/23 04:44:27;;;;;;;5.80;5.25;;;;;;;21.33;100.00;97771.34;1223361;75;2876809;-66
2023/08/23 04:47:01;;;;;;;5.70;5.15;;;;;;;21.33;100.00;97773.41;1223098;75;2922408;-69
2023/08/23 04:49:33;;;;;;;5.60;5.10;;;;;;;21.39;100.00;97772.00;1222254;75;2928166;-68
2023/08/23 04:52:06;;;;;;;4.95;4.45;;;;;;;21.42;100.00;97778.50;1221709;75;2921201;-69
2023/08/23 04:54:39;;;;;;;4.25;3.85;;;;;;;21.34;100.00;97781.22;1211561;75;3135751;-68
2023/08/23 04:57:12;;;;;;;4.80;4.40;;;;;;;21.47;100.00;97778.34;1222180;75;2929905;-70
2023/08/23 04:59:47;;;;;;;4.70;4.20;;;;;;;21.55;100.00;97781.19;1223106;75;2927215;-65
2023/08/23 05:02:20;;;;;;;4.70;4.25;;;;;;;21.55;100.00;97774.84;1223565;75;2928521;-70
2023/08/23 05:04:52;;;;;;;4.55;3.95;;;;;;;21.55;100.00;97777.66;1223014;75;2927306;-71
2023/08/23 05:07:25;;;;;;;4.00;3.60;;;;;;;21.66;100.00;97788.50;1223696;75;2921274;-69
2023/08/23 05:09:58;;;;;;;3.90;3.50;;;;;;;21.72;100.00;97794.66;1222192;75;2919833;-69
2023/08/23 05:12:31;;;;;;;3.90;3.50;;;;;;;21.62;100.00;97804.81;1223483;75;2927076;-69
2023/08/23 05:15:09;;;;;;;5.70;5.20;;;;;;;21.55;100.00;97809.06;1223275;75;2927678;-70
2023/08/23 05:17:41;;;;;;;7.85;7.15;;;;;;;21.75;100.00;97810.28;1221083;75;3047945;-71
2023/08/23 05:20:15;;;;;;;6.60;5.90;;;;;;;21.98;100.00;97820.78;1223445;75;2927921;-67
2023/08/23 05:22:47;;;;;;;5.65;5.15;;;;;;;22.05;100.00;97808.94;1223671;75;2921719;-69
2023/08/23 05:25:21;;;;;;;7.05;6.35;;;;;;;21.84;100.00;97800.66;1222452;75;2921624;-71
2023/08/23 05:27:54;;;;;;;8.75;7.85;;;;;;;21.89;100.00;97805.34;1221250;75;2925899;-68
2023/08/23 05:30:29;;;;;;;7.00;6.30;;;;;;;22.11;100.00;97809.53;1223161;75;2925693;-70
2023/08/23 05:33:02;;;;;;;5.90;5.40;;;;;;;22.37;100.00;97816.13;1222787;75;2921791;-70
2023/08/23 05:35:34;;;;;;;6.20;5.60;;;;;;;22.40;100.00;97815.78;1221993;75;2925929;-72
2023/08/23 05:38:07;;;;;;;11.00;7.25;;;;;;;22.42;100.00;97813.19;1222979;75;2927608;-71
2023/08/23 05:40:40;;;;;;;12.30;8.80;;;;;;;22.61;100.00;97812.88;1223379;75;2924573;-67
2023/08/23 05:43:13;;;;;;;8.70;7.65;;;;;;;22.70;100.00;97809.50;1223660;75;2953600;-69
2023/08/23 05:45:50;;;;;;;6.95;6.30;;;;;;;22.96;100.00;97800.06;1223484;75;2920477;-68
2023/08/23 05:48:23;;;;;;;6.70;6.10;;;;;;;23.05;100.00;97809.22;1223172;75;2924515;-69
2023/08/23 05:50:56;;;;;;;7.55;6.85;;;;;;;22.90;100.00;97799.50;1222983;75;2941284;-69
2023/08/23 05:53:28;;;;;;;6.85;6.15;;;;;;;23.19;100.00;97807.75;1223471;75;2934886;-69
2023/08/23 05:56:01;;;;;;;5.85;5.25;;;;;;;23.41;100.00;97806.22;1222225;75;2926368;-69
2023/08/23 05:58:34;;;;;;;4.80;4.30;;;;;;;23.52;100.00;97811.44;1223918;75;2923837;-71
2023/08/23 06:01:09;;;;;;;5.25;4.50;;;;;;;23.47;100.00;97820.72;1224142;75;2920795;-69
2023/08/23 06:03:42;;;;;;;4.10;3.70;;;;;;;23.74;100.00;97829.50;1223455;75;2924398;-68
2023/08/23 06:06:16;;;;;;;4.70;4.20;;;;;;;23.75;100.00;97828.19;1220845;75;2920928;-72
2023/08/23 06:08:48;;;;;;;4.45;4.05;;;;;;;23.92;100.00;97826.84;1223271;75;2921734;-71
2023/08/23 06:11:21;;;;;;;5.15;4.65;;;;;;;23.94;100.00;97830.56;1222630;75;2926176;-70
2023/08/23 06:13:54;;;;;;;4.90;4.40;;;;;;;24.21;100.00;97835.69;1223892;75;2948669;-67
2023/08/23 06:16:30;;;;;;;5.05;4.55;;;;;;;24.26;100.00;97829.13;1222138;75;2918887;-70
2023/08/23 06:19:03;;;;;;;9.85;8.85;;;;;;;23.90;100.00;97843.41;1223315;75;2947158;-70
2023/08/23 06:21:35;;;;;;;13.60;8.75;;;;;;;24.02;100.00;97834.06;1221115;75;2922996;-68
2023/08/23 06:24:08;;;;;;;9.85;8.10;;;;;;;24.23;100.00;97833.06;1222483;75;2921003;-68
2023/08/23 06:26:43;;;;;;;8.90;8.00;;;;;;;24.44;100.00;97833.53;1223062;75;2930981;-70
2023/08/23 06:29:16;;;;;;;9.60;8.70;;;;;;;24.47;100.00;97828.88;1223925;75;2919771;-66
2023/08/23 06:32:02;;;;;;;10.60;9.50;;;;;;;24.68;100.00;97811.78;1221461;75;3059318;-71
2023/08/23 06:34:37;;;;;;;9.00;7.90;;;;;;;24.86;100.00;97804.91;1147922;75;8741908;-67
2023/08/23 06:37:10;;;;;;;9.30;8.00;;;;;;;24.96;100.00;97809.91;1223226;75;2921408;-70
2023/08/23 06:39:42;;;;;;;8.40;7.00;;;;;;;25.24;97.10;97817.91;1222804;75;2920594;-70
2023/08/23 06:42:15;;;;;;;8.85;7.80;;;;;;;24.88;100.00;97818.38;1223079;75;2929404;-69
2023/08/23 06:44:48;;;;;;;9.30;7.40;;;;;;;24.95;99.40;97825.97;1220944;75;3026114;-71
2023/08/23 06:47:23;;;;;;;9.10;8.20;;;;;;;25.12;99.33;97825.28;1222865;75;2927547;-69
2023/08/23 06:49:55;;;;;;;11.80;8.10;;;;;;;25.20;100.00;97823.19;1223291;75;2927665;-69
2023/08/23 06:52:28;;;;;;;12.65;7.90;;;;;;;25.34;96.96;97831.31;1222369;75;2928204;-67
2023/08/23 06:55:02;;;;;;;8.75;7.60;;;;;;;25.26;96.91;97826.50;1222730;75;2919339;-68
2023/08/23 06:57:35;;;;;;;8.85;8.00;;;;;;;25.44;96.05;97824.47;1223077;75;2924000;-69
2023/08/23 07:00:09;;;;;;;8.85;7.95;;;;;;;25.48;96.91;97844.44;1223887;75;2923417;-68
2023/08/23 07:02:45;;;;;;;8.70;7.80;;;;;;;25.49;94.37;97834.69;1223514;75;2924450;-69
2023/08/23 07:05:18;;;;;;;9.45;7.90;;;;;;;25.48;95.24;97830.41;1222700;75;2923830;-69
2023/08/23 07:07:51;;;;;;;10.65;7.80;;;;;;;25.75;92.57;97818.56;1223532;75;2929840;-70
2023/08/23 07:10:24;;;;;;;8.85;7.20;;;;;;;26.09;91.85;97809.41;1221502;75;2960293;-69
2023/08/23 07:12:56;;;;;;;8.65;7.25;;;;;;;26.19;89.21;97811.53;1223879;75;2917738;-72
2023/08/23 07:15:29;;;;;;;7.80;7.00;;;;;;;26.15;89.83;97814.78;1223347;75;2921163;-70
2023/08/23 07:18:04;;;;;;;8.75;7.55;;;;;;;26.31;89.74;97821.69;1222188;75;2926454;-69
2023/08/23 07:20:37;;;;;;;7.85;7.05;;;;;;;26.54;85.65;97817.84;1223859;75;2929052;-70
2023/08/23 07:23:09;;;;;;;12.55;7.45;;;;;;;26.62;85.04;97824.09;1223172;75;2922476;-71
2023/08/23 07:25:42;;;;;;;8.10;7.30;;;;;;;26.65;84.58;97814.53;1220428;75;2920555;-71
2023/08/23 07:28:15;;;;;;;10.75;8.20;;;;;;;26.64;85.40;97820.72;1223323;75;2925929;-68
2023/08/23 07:30:56;;;;;;;10.75;7.45;;;;;;;26.91;84.04;97820.69;1222974;75;2928110;-69
2023/08/23 07:33:32;;;;;;;12.50;7.40;;;;;;;26.95;81.13;97826.63;1222977;75;2918370;-69
2023/08/23 07:36:05;;;;;;;9.20;7.90;;;;;;;26.84;82.13;97827.16;1222860;75;2929094;-70
2023/08/23 07:38:38;;;;;;;9.00;8.05;;;;;;;27.01;80.25;97826.34;1223488;75;2920489;-69
2023/08/23 07:41:10;;;;;;;7.50;6.75;;;;;;;27.33;78.63;97828.84;1223312;75;2923820;-70
2023/08/23 07:43:43;;;;;;;10.70;8.05;;;;;;;27.47;77.53;97829.19;1223854;75;2926779;-67
2023/08/23 07:46:15;;;;;;;10.45;7.95;;;;;;;27.61;77.06;97827.44;1222595;75;2923522;-71
2023/08/23 07:48:51;;;;;;;7.75;6.90;;;;;;;27.92;74.33;97823.31;1223467;75;2921248;-70
2023/08/23 07:51:23;;;;;;;9.55;7.15;;;;;;;27.82;74.66;97832.50;1224009;75;2922843;-69
2023/08/23 07:53:56;;;;;;;8.25;7.15;;;;;;;27.96;72.26;97827.19;1222297;75;2921879;-69
2023/08/23 07:56:29;;;;;;;8.75;6.80;;;;;;;28.08;72.53;97826.59;1223547;75;2947657;-71
2023/08/23 07:59:01;;;;;;;7.00;6.20;;;;;;;28.38;71.00;97820.34;1223132;75;2927155;-69
2023/08/23 08:01:34;;;;;;;9.85;7.25;;;;;;;28.41;70.33;97818.41;1223640;75;2924515;-69
2023/08/23 08:04:09;;;;;;;8.80;6.95;;;;;;;28.81;69.76;97828.97;1224097;75;2919701;-67
2023/08/23 08:06:42;;;;;;;7.70;6.90;;;;;;;28.71;68.15;97833.91;1222617;75;2932368;-69
2023/08/23 08:09:15;;;;;;;7.65;6.95;;;;;;;29.34;67.12;97825.50;1223660;75;2924966;-69
2023/08/23 08:11:48;;;;;;;9.10;8.15;;;;;;;29.47;66.30;97825.00;1223485;75;2924887;-68
2023/08/23 08:14:20;;;;;;;7.60;6.80;;;;;;;28.99;66.35;97828.78;1223496;75;2932625;-70
2023/08/23 08:16:53;;;;;;;7.60;6.80;;;;;;;29.30;65.50;97835.19;1223342;75;2925770;-71
2023/08/23 08:19:28;;;;;;;5.40;4.85;;;;;;;29.81;63.36;97834.31;1223311;75;2919921;-70
2023/08/23 08:22:01;;;;;;;6.50;5.80;;;;;;;29.83;64.46;97840.81;1222190;75;2938210;-68
2023/08/23 08:24:34;;;;;;;6.50;5.80;;;;;;;30.18;65.42;97842.31;1222436;75;2927390;-68
2023/08/23 08:27:07;;;;;;;8.05;7.25;;;;;;;29.60;66.60;97849.84;1222528;75;2920395;-68
2023/08/23 08:29:39;;;;;;;7.40;6.60;;;;;;;29.96;64.37;97852.91;1222566;75;2920413;-72
2023/08/23 08:32:12;;;;;;;7.20;6.50;;;;;;;30.44;67.29;97849.66;1222588;75;2932367;-71
2023/08/23 08:34:47;;;;;;;10.15;7.35;;;;;;;30.03;69.82;97858.34;1223408;75;2925131;-69
2023/08/23 08:37:21;;;;;;;8.10;7.30;;;;;;;30.67;65.24;97859.56;1223712;75;2918728;-70
2023/08/23 08:39:54;;;;;;;9.30;7.10;;;;;;;30.45;64.41;97868.13;1223799;75;2924039;-70
2023/08/23 08:42:27;;;;;;;10.10;7.70;;;;;;;29.97;64.55;97872.06;1223292;75;2924339;-71
2023/08/23 08:44:59;;;;;;;8.95;6.90;;;;;;;30.31;63.90;97867.22;1222867;75;2926982;-70
2023/08/23 08:47:32;;;;;;;8.50;7.00;;;;;;;30.40;63.32;97860.72;1223473;75;2926084;-69
2023/08/23 08:50:08;;;;;;;10.45;6.65;;;;;;;30.30;63.00;97866.44;1223729;75;2928792;-69
2023/08/23 08:52:46;;;;;;;6.70;5.95;;;;;;;30.87;61.51;97865.78;1222677;75;2932807;-67
2023/08/23 08:55:21;;;;;;;6.35;5.75;;;;;;;31.13;60.79;97866.66;1223547;75;2918661;-70
2023/08/23 08:57:56;;;;;;;6.80;6.10;;;;;;;31.23;61.12;97860.88;1223336;75;2927260;-65
2023/08/23 09:00:29;;;;;;;6.25;5.65;;;;;;;31.26;58.30;97859.63;1223748;75;2922136;-70
2023/08/23 09:03:03;;;;;;;6.10;5.25;;;;;;;31.76;57.74;97867.59;1223388;75;2928079;-69
2023/08/23 09:05:39;;;;;;;5.90;5.30;;;;;;;31.93;58.27;97855.13;1221371;75;2928879;-68
2023/08/23 09:08:12;;;;;;;7.05;6.35;;;;;;;31.68;58.28;97858.66;1222576;75;2925293;-68
2023/08/23 09:10:45;;;;;;;6.20;5.60;;;;;;;31.95;57.38;97848.88;1222657;75;2925309;-70
2023/08/23 09:13:17;;;;;;;9.55;6.45;;;;;;;31.26;58.89;97848.31;1224314;75;2926472;-66
2023/08/23 09:15:51;;;;;;;7.00;6.30;;;;;;;31.55;58.71;97851.50;1222539;75;2935162;-68
2023/08/23 09:18:24;;;;;;;6.90;5.60;;;;;;;31.94;59.32;97844.53;1222901;75;2929056;-69
2023/08/23 09:20:59;;;;;;;7.80;6.85;;;;;;;31.85;61.14;97837.69;1223159;75;2920483;-70
2023/08/23 09:23:38;;;;;;;6.75;6.10;;;;;;;32.07;60.84;97832.56;1221959;75;2927952;-68
2023/08/23 09:26:11;;;;;;;8.75;6.75;;;;;;;32.02;60.18;97830.88;1219139;75;2920620;-70
2023/08/23 09:28:44;;;;;;;7.50;6.70;;;;;;;32.16;60.46;97819.59;1222905;75;2925714;-69
2023/08/23 09:31:19;;;;;;;7.15;6.45;;;;;;;32.33;60.84;97815.56;1224073;75;2921940;-70
2023/08/23 09:33:53;;;;;;;9.50;6.80;;;;;;;31.98;61.32;97813.66;1221942;75;2921706;-67
2023/08/23 09:36:40;;;;;;;7.60;6.55;;;;;;;32.21;59.88;97810.72;1222698;75;2919634;-68
2023/08/23 09:39:13;;;;;;;8.90;6.85;;;;;;;32.25;60.80;97813.03;1223320;75;2924210;-68
2023/08/23 09:41:47;;;;;;;6.65;5.80;;;;;;;33.03;59.05;97803.81;1222264;75;2917230;-69
2023/08/23 09:44:22;;;;;;;8.55;6.05;;;;;;;32.97;58.35;97803.44;1223059;75;2921807;-71
2023/08/23 09:46:57;;;;;;;5.60;5.10;;;;;;;33.82;57.52;97802.78;1222912;75;2925254;-70
2023/08/23 09:49:35;;;;;;;5.25;4.75;;;;;;;34.40;55.67;97803.44;1223137;75;2926376;-71
2023/08/23 09:52:12;;;;;;;7.05;5.40;;;;;;;33.70;56.35;97798.00;1222732;75;2939330;-70
2023/08/23 09:54:56;;;;;;;7.60;6.50;;;;;;;33.85;58.39;97804.38;1222799;75;2923364;-67
2023/08/23 09:57:28;;;;;;;8.00;6.20;;;;;;;33.74;57.88;97800.28;1223960;75;2923021;-71
2023/08/23 10:00:02;;;;;;;7.60;6.35;;;;;;;33.53;59.07;97804.94;1223282;75;2928642;-69
2023/08/23 10:02:36;;;;;;;12.60;6.40;;;;;;;33.55;55.50;97797.88;1222056;75;2920631;-68
2023/08/23 10:05:11;;;;;;;8.25;6.00;;;;;;;33.55;56.65;97797.88;1222761;75;2921828;-66
2023/08/23 10:07:47;;;;;;;8.00;6.05;;;;;;;33.84;55.16;97797.22;1224211;75;2929117;-67
2023/08/23 10:10:19;;;;;;;5.40;4.90;;;;;;;34.16;53.61;97789.56;1223698;75;2923648;-72
2023/08/23 10:12:56;;;;;;;4.40;4.00;;;;;;;34.90;48.89;97792.94;1221996;75;2926540;-67
2023/08/23 10:15:34;;;;;;;5.10;3.80;;;;;;;34.60;46.77;97780.94;1223780;75;2922921;-69
2023/08/23 10:18:11;;;;;;;5.70;3.30;;;;;;;35.23;43.98;97775.22;1224108;75;2924643;-71
2023/08/23 10:20:46;;;;;;;4.60;3.10;;;;;;;35.31;43.99;97771.97;1223518;75;2921858;-68
2023/08/23 10:23:21;;;;;;;3.90;3.35;;;;;;;35.48;45.55;97770.53;1223399;75;2927436;-70
2023/08/23 10:25:54;;;;;;;4.10;3.70;;;;;;;35.09;45.78;97774.56;1222434;75;2926570;-70
2023/08/23 10:28:27;;;;;;;5.70;3.30;;;;;;;35.76;43.21;97766.03;1223805;75;2931182;-70
2023/08/23 10:31:03;;;;;;;4.65;3.40;;;;;;;35.78;44.63;97760.44;1223513;75;2926395;-67
2023/08/23 10:33:36;;;;;;;6.80;4.10;;;;;;;35.52;45.57;97757.22;1223500;75;2925541;-70
2023/08/23 10:36:09;;;;;;;3.10;2.80;;;;;;;37.43;42.78;97744.44;1222733;75;2923844;-70
2023/08/23 10:38:45;;;;;;;3.30;2.90;;;;;;;37.29;42.29;97742.56;1222497;75;2919686;-67
2023/08/23 10:41:21;;;;;;;3.90;3.50;;;;;;;37.26;42.03;97743.16;1223761;75;2923544;-71
2023/08/23 10:43:54;;;;;;;3.50;2.70;;;;;;;37.22;41.59;97746.59;1222871;75;2929418;-70
2023/08/23 10:46:30;;;;;;;5.95;3.90;;;;;;;37.12;42.99;97749.13;1223090;75;2922013;-70
2023/08/23 10:49:04;;;;;;;6.00;4.40;;;;;;;37.05;43.61;97758.81;1220081;75;2985432;-70
2023/08/23 10:51:37;;;;;;;5.30;4.80;;;;;;;36.46;44.97;97772.34;1222731;75;2927141;-69
2023/08/23 10:54:17;;;;;;;5.20;4.20;;;;;;;34.70;48.18;97770.03;1221356;75;2921678;-71
2023/08/23 10:56:51;;;;;;;4.60;3.80;;;;;;;35.42;48.17;97771.75;1222860;75;2919530;-70
2023/08/23 10:59:23;;;;;;;5.10;4.30;;;;;;;34.39;48.05;97782.06;1223446;75;2922767;-66
2023/08/23 11:01:56;;;;;;;7.20;4.40;;;;;;;34.64;48.25;97781.84;1223209;75;2922553;-65
2023/08/23 11:04:29;;;;;;;5.40;4.40;;;;;;;33.39;50.46;97780.78;1223178;75;2921141;-73
2023/08/23 11:07:02;;;;;;;5.20;4.70;;;;;;;33.46;50.78;97776.91;1223160;75;2920674;-72
2023/08/23 11:09:38;;;;;;;4.90;4.40;;;;;;;33.64;50.79;97765.72;1222130;75;2923792;-70
2023/08/23 11:12:12;;;;;;;5.90;4.50;;;;;;;33.38;50.81;97756.59;1223319;75;2927267;-67
2023/08/23 11:14:45;;;;;;;8.50;4.40;;;;;;;33.72;50.44;97757.59;1223357;75;2926440;-71
2023/08/23 11:17:18;;;;;;;4.85;3.85;;;;;;;33.53;51.78;97776.56;1223061;75;2922813;-68
2023/08/23 11:19:51;;;;;;;4.50;4.10;;;;;;;33.54;52.31;97777.28;1223679;75;2923798;-69
2023/08/23 11:22:27;;;;;;;5.20;4.60;;;;;;;33.18;54.43;97790.38;1223470;75;2924124;-69
2023/08/23 11:25:02;;;;;;;6.50;4.80;;;;;;;32.74;57.16;97795.88;1222539;75;2926662;-70
2023/08/23 11:27:35;;;;;;;5.90;5.30;;;;;;;32.25;58.15;97798.84;1222214;75;2993443;-73
2023/08/23 11:30:09;;;;;;;6.40;5.80;;;;;;;32.10;59.65;97786.00;1223081;75;2924057;-69
2023/08/23 11:32:42;;;;;;;5.90;5.30;;;;;;;31.98;60.46;97777.56;1222544;75;2928566;-67
2023/08/23 11:35:15;;;;;;;6.50;5.90;;;;;;;31.84;60.80;97796.56;1221132;75;2936019;-70
2023/08/23 11:37:51;;;;;;;6.40;5.30;;;;;;;31.79;60.27;97798.41;1220304;75;3079084;-68
2023/08/23 11:40:27;;;;;;;6.20;4.70;;;;;;;32.06;60.38;97811.25;1221252;75;2996834;-67
2023/08/23 11:43:00;;;;;;;5.50;5.00;;;;;;;31.71;61.26;97814.22;1222326;75;2930341;-71